sensor_id;sensor_type;location;lat;lon;timestamp;pressure;altitude;pressure_sealevel;temperature;humidity
3544;BME280;1786;52.870;9.578;2022-12-26T00:00:22;99887.22;;;18.92;60.00
3544;BME280;1786;52.870;9.578;2022-12-26T00:02:50;99894.75;;;19.13;59.75
3544;BME280;1786;52.870;9.578;2022-12-26T00:05:17;99902.25;;;18.69;60.37
3544;BME280;1786;52.870;9.578;2022-12-26T00:07:43;99902.28;;;18.77;60.22
3544;BME280;1786;52.870;9.578;2022-12-26T00:10:11;99898.22;;;18.65;60.79
3544;BME280;1786;52.870;9.578;2022-12-26T00:12:37;99892.53;;;18.35;61.56
3544;BME280;1786;52.870;9.578;2022-12-26T00:15:04;99877.50;;;18.67;60.63
3544;BME280;1786;52.870;9.578;2022-12-26T00:17:31;99862.78;;;18.54;60.74
3544;BME280;1786;52.870;9.578;2022-12-26T00:19:57;99862.47;;;18.82;60.28
3544;BME280;1786;52.870;9.578;2022-12-26T00:22:24;99860.47;;;18.84;60.23
3544;BME280;1786;52.870;9.578;2022-12-26T00:24:50;99872.03;;;18.76;60.48
3544;BME280;1786;52.870;9.578;2022-12-26T00:27:17;99882.91;;;18.83;60.31
3544;BME280;1786;52.870;9.578;2022-12-26T00:29:46;99886.91;;;18.87;59.89
3544;BME280;1786;52.870;9.578;2022-12-26T00:32:13;99891.25;;;18.96;59.86
3544;BME280;1786;52.870;9.578;2022-12-26T00:34:39;99884.25;;;18.95;60.02
3544;BME280;1786;52.870;9.578;2022-12-26T00:37:06;99888.91;;;19.18;59.52
3544;BME280;1786;52.870;9.578;2022-12-26T00:39:32;99885.22;;;18.86;60.07
3544;BME280;1786;52.870;9.578;2022-12-26T00:41:59;99883.16;;;19.29;59.78
3544;BME280;1786;52.870;9.578;2022-12-26T00:44:25;99881.63;;;19.43;58.85
3544;BME280;1786;52.870;9.578;2022-12-26T00:46:52;99875.13;;;19.29;58.90
3544;BME280;1786;52.870;9.578;2022-12-26T00:49:19;99885.69;;;19.22;59.39
3544;BME280;1786;52.870;9.578;2022-12-26T00:51:46;99898.09;;;19.23;59.32
3544;BME280;1786;52.870;9.578;2022-12-26T00:54:12;99903.28;;;19.17;59.32
3544;BME280;1786;52.870;9.578;2022-12-26T00:56:39;99900.72;;;19.40;58.53
3544;BME280;1786;52.870;9.578;2022-12-26T00:59:05;99898.38;;;19.37;58.75
3544;BME280;1786;52.870;9.578;2022-12-26T01:01:32;99904.63;;;18.96;59.69
3544;BME280;1786;52.870;9.578;2022-12-26T01:03:59;99911.97;;;18.70;60.33
3544;BME280;1786;52.870;9.578;2022-12-26T01:06:26;99911.50;;;19.15;59.34
3544;BME280;1786;52.870;9.578;2022-12-26T01:08:53;99912.34;;;19.08;59.47
3544;BME280;1786;52.870;9.578;2022-12-26T01:11:19;99909.16;;;19.20;59.18
3544;BME280;1786;52.870;9.578;2022-12-26T01:14:15;99905.66;;;18.95;59.79
3544;BME280;1786;52.870;9.578;2022-12-26T01:16:44;99908.16;;;19.13;59.07
3544;BME280;1786;52.870;9.578;2022-12-26T01:19:11;99904.44;;;19.14;59.16
3544;BME280;1786;52.870;9.578;2022-12-26T01:21:38;99910.31;;;19.26;59.22
3544;BME280;1786;52.870;9.578;2022-12-26T01:24:06;99908.28;;;19.20;59.03
3544;BME280;1786;52.870;9.578;2022-12-26T01:26:33;99910.31;;;19.26;58.65
3544;BME280;1786;52.870;9.578;2022-12-26T01:29:00;99906.31;;;18.89;59.96
3544;BME280;1786;52.870;9.578;2022-12-26T01:31:26;99910.31;;;19.18;59.37
3544;BME280;1786;52.870;9.578;2022-12-26T01:33:53;99912.00;;;19.02;59.68
3544;BME280;1786;52.870;9.578;2022-12-26T01:36:20;99912.63;;;19.29;59.01
3544;BME280;1786;52.870;9.578;2022-12-26T01:38:47;99919.34;;;19.33;58.81
3544;BME280;1786;52.870;9.578;2022-12-26T01:41:13;99923.03;;;19.24;59.11
3544;BME280;1786;52.870;9.578;2022-12-26T01:43:50;99922.97;;;19.49;58.48
3544;BME280;1786;52.870;9.578;2022-12-26T01:46:21;99919.94;;;19.68;58.35
3544;BME280;1786;52.870;9.578;2022-12-26T01:48:50;99915.78;;;19.49;58.42
3544;BME280;1786;52.870;9.578;2022-12-26T01:51:18;99923.50;;;19.44;58.64
3544;BME280;1786;52.870;9.578;2022-12-26T01:53:51;99927.88;;;19.29;59.23
3544;BME280;1786;52.870;9.578;2022-12-26T01:56:27;99924.88;;;19.23;59.13
3544;BME280;1786;52.870;9.578;2022-12-26T01:59:05;99927.38;;;19.33;58.86
3544;BME280;1786;52.870;9.578;2022-12-26T02:01:34;99922.94;;;19.57;58.31
3544;BME280;1786;52.870;9.578;2022-12-26T02:04:06;99930.88;;;19.34;59.10
3544;BME280;1786;52.870;9.578;2022-12-26T02:06:53;99921.63;;;19.61;58.20
3544;BME280;1786;52.870;9.578;2022-12-26T02:09:20;99929.66;;;19.69;58.52
3544;BME280;1786;52.870;9.578;2022-12-26T02:11:52;99921.94;;;19.58;58.39
3544;BME280;1786;52.870;9.578;2022-12-26T02:14:42;99922.91;;;19.81;57.67
3544;BME280;1786;52.870;9.578;2022-12-26T02:17:09;99933.63;;;19.65;58.35
3544;BME280;1786;52.870;9.578;2022-12-26T02:22:32;99941.28;;;19.93;57.63
3544;BME280;1786;52.870;9.578;2022-12-26T02:36:40;99935.41;;;19.25;59.01
3544;BME280;1786;52.870;9.578;2022-12-26T02:39:38;99939.06;;;19.32;59.46
3544;BME280;1786;52.870;9.578;2022-12-26T02:42:32;99935.00;;;19.61;58.74
3544;BME280;1786;52.870;9.578;2022-12-26T02:45:14;99935.00;;;19.53;58.58
3544;BME280;1786;52.870;9.578;2022-12-26T02:53:50;99923.72;;;18.93;60.18
3544;BME280;1786;52.870;9.578;2022-12-26T02:56:41;99916.44;;;19.51;58.96
3544;BME280;1786;52.870;9.578;2022-12-26T03:02:24;99921.69;;;19.28;59.32
3544;BME280;1786;52.870;9.578;2022-12-26T03:05:20;99922.81;;;19.42;59.04
3544;BME280;1786;52.870;9.578;2022-12-26T03:08:11;99923.19;;;19.22;59.68
3544;BME280;1786;52.870;9.578;2022-12-26T03:10:57;99918.66;;;19.15;59.96
3544;BME280;1786;52.870;9.578;2022-12-26T03:13:43;99914.63;;;19.43;59.20
3544;BME280;1786;52.870;9.578;2022-12-26T03:16:12;99919.78;;;19.45;59.23
3544;BME280;1786;52.870;9.578;2022-12-26T03:19:04;99920.00;;;19.19;60.07
3544;BME280;1786;52.870;9.578;2022-12-26T03:21:37;99921.34;;;19.31;59.69
3544;BME280;1786;52.870;9.578;2022-12-26T03:24:09;99917.00;;;19.22;59.87
3544;BME280;1786;52.870;9.578;2022-12-26T03:26:45;99922.47;;;19.45;59.32
3544;BME280;1786;52.870;9.578;2022-12-26T03:29:16;99919.16;;;19.27;59.63
3544;BME280;1786;52.870;9.578;2022-12-26T03:32:04;99920.97;;;19.51;59.23
3544;BME280;1786;52.870;9.578;2022-12-26T03:34:33;99926.31;;;19.42;59.05
3544;BME280;1786;52.870;9.578;2022-12-26T03:40:11;99919.00;;;19.28;59.68
3544;BME280;1786;52.870;9.578;2022-12-26T03:46:15;99921.06;;;18.85;61.03
3544;BME280;1786;52.870;9.578;2022-12-26T03:49:27;99915.34;;;19.05;60.58
3544;BME280;1786;52.870;9.578;2022-12-26T03:52:22;99915.03;;;19.08;60.61
3544;BME280;1786;52.870;9.578;2022-12-26T03:55:33;99923.88;;;18.92;61.07
3544;BME280;1786;52.870;9.578;2022-12-26T03:58:35;99919.03;;;18.87;61.25
3544;BME280;1786;52.870;9.578;2022-12-26T04:01:26;99924.72;;;18.92;61.11
3544;BME280;1786;52.870;9.578;2022-12-26T04:04:14;99929.25;;;19.00;60.98
3544;BME280;1786;52.870;9.578;2022-12-26T04:07:11;99933.25;;;18.88;61.49
3544;BME280;1786;52.870;9.578;2022-12-26T04:10:06;99934.03;;;18.47;62.70
3544;BME280;1786;52.870;9.578;2022-12-26T04:12:53;99929.66;;;18.54;62.51
3544;BME280;1786;52.870;9.578;2022-12-26T04:15:53;99923.81;;;18.34;63.15
3544;BME280;1786;52.870;9.578;2022-12-26T04:18:55;99934.25;;;18.11;63.98
3544;BME280;1786;52.870;9.578;2022-12-26T04:25:17;99935.63;;;18.24;63.42
3544;BME280;1786;52.870;9.578;2022-12-26T04:28:19;99934.66;;;18.49;62.96
3544;BME280;1786;52.870;9.578;2022-12-26T04:31:14;99934.91;;;18.05;64.25
3544;BME280;1786;52.870;9.578;2022-12-26T04:34:07;99934.13;;;18.21;63.94
3544;BME280;1786;52.870;9.578;2022-12-26T04:36:58;99938.00;;;18.35;64.06
3544;BME280;1786;52.870;9.578;2022-12-26T04:39:48;99942.06;;;18.55;63.14
3544;BME280;1786;52.870;9.578;2022-12-26T04:42:35;99941.72;;;18.58;63.30
3544;BME280;1786;52.870;9.578;2022-12-26T04:45:22;99941.97;;;18.23;64.30
3544;BME280;1786;52.870;9.578;2022-12-26T04:47:50;99944.69;;;18.31;64.08
3544;BME280;1786;52.870;9.578;2022-12-26T04:50:35;99944.59;;;17.46;65.93
3544;BME280;1786;52.870;9.578;2022-12-26T04:53:02;99939.25;;;17.46;66.88
3544;BME280;1786;52.870;9.578;2022-12-26T04:55:31;99941.84;;;17.90;65.33
3544;BME280;1786;52.870;9.578;2022-12-26T04:57:58;99938.44;;;18.14;64.58
3544;BME280;1786;52.870;9.578;2022-12-26T05:00:26;99945.00;;;18.20;64.31
3544;BME280;1786;52.870;9.578;2022-12-26T05:02:55;99947.25;;;18.06;64.50
3544;BME280;1786;52.870;9.578;2022-12-26T05:05:54;99947.34;;;18.39;63.68
3544;BME280;1786;52.870;9.578;2022-12-26T05:08:41;99944.50;;;17.82;65.44
3544;BME280;1786;52.870;9.578;2022-12-26T05:11:29;99951.97;;;18.04;64.58
3544;BME280;1786;52.870;9.578;2022-12-26T05:13:57;99951.94;;;17.78;65.38
3544;BME280;1786;52.870;9.578;2022-12-26T05:16:25;99945.38;;;17.99;64.48
3544;BME280;1786;52.870;9.578;2022-12-26T05:19:15;99941.22;;;17.96;64.61
3544;BME280;1786;52.870;9.578;2022-12-26T05:22:03;99958.63;;;18.00;64.32
3544;BME280;1786;52.870;9.578;2022-12-26T05:24:48;99957.69;;;18.17;64.13
3544;BME280;1786;52.870;9.578;2022-12-26T05:27:38;99953.03;;;18.36;63.79
3544;BME280;1786;52.870;9.578;2022-12-26T05:30:24;99949.16;;;17.80;64.92
3544;BME280;1786;52.870;9.578;2022-12-26T05:32:51;99950.50;;;17.84;65.18
3544;BME280;1786;52.870;9.578;2022-12-26T05:35:37;99938.50;;;17.88;65.12
3544;BME280;1786;52.870;9.578;2022-12-26T05:38:04;99945.34;;;17.82;65.17
3544;BME280;1786;52.870;9.578;2022-12-26T05:40:31;99957.88;;;17.64;66.09
3544;BME280;1786;52.870;9.578;2022-12-26T05:42:58;99960.13;;;18.03;64.89
3544;BME280;1786;52.870;9.578;2022-12-26T05:45:25;99947.59;;;18.03;64.52
3544;BME280;1786;52.870;9.578;2022-12-26T05:48:02;99953.47;;;18.07;64.25
3544;BME280;1786;52.870;9.578;2022-12-26T05:50:28;99945.78;;;17.78;65.26
3544;BME280;1786;52.870;9.578;2022-12-26T05:52:56;99960.13;;;18.03;64.70
3544;BME280;1786;52.870;9.578;2022-12-26T05:55:24;99958.06;;;17.97;64.83
3544;BME280;1786;52.870;9.578;2022-12-26T05:57:51;99967.19;;;18.12;64.57
3544;BME280;1786;52.870;9.578;2022-12-26T06:00:18;99968.66;;;18.06;64.75
3544;BME280;1786;52.870;9.578;2022-12-26T06:02:44;99969.63;;;17.71;64.83
3544;BME280;1786;52.870;9.578;2022-12-26T06:05:11;99972.28;;;17.71;65.60
3544;BME280;1786;52.870;9.578;2022-12-26T06:07:38;99984.75;;;17.80;65.30
3544;BME280;1786;52.870;9.578;2022-12-26T06:10:05;99977.38;;;17.56;65.69
3544;BME280;1786;52.870;9.578;2022-12-26T06:12:33;99981.97;;;17.46;65.95
3544;BME280;1786;52.870;9.578;2022-12-26T06:15:01;99981.78;;;17.65;65.72
3544;BME280;1786;52.870;9.578;2022-12-26T06:17:28;99984.50;;;17.73;64.89
3544;BME280;1786;52.870;9.578;2022-12-26T06:19:55;99984.31;;;17.93;63.98
3544;BME280;1786;52.870;9.578;2022-12-26T06:22:22;99986.56;;;18.14;64.28
3544;BME280;1786;52.870;9.578;2022-12-26T06:24:49;99984.31;;;18.44;63.27
3544;BME280;1786;52.870;9.578;2022-12-26T06:27:16;99988.16;;;18.41;63.48
3544;BME280;1786;52.870;9.578;2022-12-26T06:29:42;99995.31;;;17.90;64.58
3544;BME280;1786;52.870;9.578;2022-12-26T06:32:09;100004.53;;;18.38;63.42
3544;BME280;1786;52.870;9.578;2022-12-26T06:34:35;100000.91;;;18.55;63.10
3544;BME280;1786;52.870;9.578;2022-12-26T06:37:02;100003.75;;;18.11;64.07
3544;BME280;1786;52.870;9.578;2022-12-26T06:39:28;100017.56;;;18.33;63.11
3544;BME280;1786;52.870;9.578;2022-12-26T06:41:55;100017.31;;;18.10;64.12
3544;BME280;1786;52.870;9.578;2022-12-26T06:44:22;100027.88;;;17.85;64.54
3544;BME280;1786;52.870;9.578;2022-12-26T06:46:50;100018.47;;;18.07;64.22
3544;BME280;1786;52.870;9.578;2022-12-26T06:49:17;100017.41;;;18.00;64.30
3544;BME280;1786;52.870;9.578;2022-12-26T06:51:43;100019.94;;;18.44;63.46
3544;BME280;1786;52.870;9.578;2022-12-26T06:54:10;100030.59;;;18.28;63.26
3544;BME280;1786;52.870;9.578;2022-12-26T06:56:37;100027.44;;;18.32;63.18
3544;BME280;1786;52.870;9.578;2022-12-26T06:59:05;100021.97;;;18.42;62.58
3544;BME280;1786;52.870;9.578;2022-12-26T07:01:33;100017.44;;;18.93;62.09
3544;BME280;1786;52.870;9.578;2022-12-26T07:04:00;100019.72;;;17.95;64.36
3544;BME280;1786;52.870;9.578;2022-12-26T07:06:35;100015.38;;;18.28;63.26
3544;BME280;1786;52.870;9.578;2022-12-26T07:09:08;100019.34;;;18.24;63.50
3544;BME280;1786;52.870;9.578;2022-12-26T07:11:38;100016.41;;;18.01;63.91
3544;BME280;1786;52.870;9.578;2022-12-26T07:14:07;100016.28;;;18.53;63.04
3544;BME280;1786;52.870;9.578;2022-12-26T07:16:35;100027.31;;;18.93;61.82
3544;BME280;1786;52.870;9.578;2022-12-26T07:19:02;100023.75;;;18.76;62.28
3544;BME280;1786;52.870;9.578;2022-12-26T07:21:29;100028.84;;;18.61;62.77
3544;BME280;1786;52.870;9.578;2022-12-26T07:24:03;100025.34;;;18.52;62.78
3544;BME280;1786;52.870;9.578;2022-12-26T07:26:30;100028.00;;;18.52;62.76
3544;BME280;1786;52.870;9.578;2022-12-26T07:28:58;100012.75;;;18.95;61.75
3544;BME280;1786;52.870;9.578;2022-12-26T07:31:25;100008.75;;;19.16;61.11
3544;BME280;1786;52.870;9.578;2022-12-26T07:33:55;100011.41;;;19.08;61.10
3544;BME280;1786;52.870;9.578;2022-12-26T07:36:23;99995.31;;;18.91;60.96
3544;BME280;1786;52.870;9.578;2022-12-26T07:38:50;100001.16;;;18.95;61.39
3544;BME280;1786;52.870;9.578;2022-12-26T07:41:17;99985.31;;;19.18;60.97
3544;BME280;1786;52.870;9.578;2022-12-26T07:44:03;99984.94;;;19.54;60.14
3544;BME280;1786;52.870;9.578;2022-12-26T07:46:31;99982.28;;;19.21;60.35
3544;BME280;1786;52.870;9.578;2022-12-26T07:48:58;99999.03;;;19.23;60.41
3544;BME280;1786;52.870;9.578;2022-12-26T07:51:25;100001.19;;;19.28;60.32
3544;BME280;1786;52.870;9.578;2022-12-26T07:53:52;100009.59;;;19.33;60.50
3544;BME280;1786;52.870;9.578;2022-12-26T07:56:19;100005.22;;;19.32;60.16
3544;BME280;1786;52.870;9.578;2022-12-26T07:58:49;100005.88;;;19.42;60.04
3544;BME280;1786;52.870;9.578;2022-12-26T08:01:16;100005.38;;;19.30;60.18
3544;BME280;1786;52.870;9.578;2022-12-26T08:03:47;100014.09;;;19.16;60.25
3544;BME280;1786;52.870;9.578;2022-12-26T08:06:15;100011.53;;;18.81;61.12
3544;BME280;1786;52.870;9.578;2022-12-26T08:08:43;100018.41;;;18.84;60.80
3544;BME280;1786;52.870;9.578;2022-12-26T08:11:18;100007.72;;;19.25;60.44
3544;BME280;1786;52.870;9.578;2022-12-26T08:13:46;100019.59;;;19.06;60.59
3544;BME280;1786;52.870;9.578;2022-12-26T08:16:14;100030.13;;;18.99;61.15
3544;BME280;1786;52.870;9.578;2022-12-26T08:18:41;100018.09;;;19.12;60.58
3544;BME280;1786;52.870;9.578;2022-12-26T08:21:09;100023.28;;;19.30;60.13
3544;BME280;1786;52.870;9.578;2022-12-26T08:23:36;100020.59;;;18.97;60.67
3544;BME280;1786;52.870;9.578;2022-12-26T08:26:08;100024.44;;;18.94;60.92
3544;BME280;1786;52.870;9.578;2022-12-26T08:28:35;100027.25;;;18.76;61.04
3544;BME280;1786;52.870;9.578;2022-12-26T08:31:06;100037.34;;;18.48;61.62
3544;BME280;1786;52.870;9.578;2022-12-26T08:33:33;100023.81;;;18.07;62.61
3544;BME280;1786;52.870;9.578;2022-12-26T08:36:07;100033.97;;;18.38;62.12
3544;BME280;1786;52.870;9.578;2022-12-26T08:38:35;100037.03;;;17.83;63.29
3544;BME280;1786;52.870;9.578;2022-12-26T08:41:04;100032.88;;;17.88;63.57
3544;BME280;1786;52.870;9.578;2022-12-26T08:43:31;100046.72;;;18.10;62.92
3544;BME280;1786;52.870;9.578;2022-12-26T08:46:19;100035.34;;;18.08;63.17
3544;BME280;1786;52.870;9.578;2022-12-26T08:48:50;100042.38;;;17.83;63.66
3544;BME280;1786;52.870;9.578;2022-12-26T08:51:20;100030.88;;;17.64;63.83
3544;BME280;1786;52.870;9.578;2022-12-26T08:53:48;100044.34;;;17.37;64.86
3544;BME280;1786;52.870;9.578;2022-12-26T08:56:18;100047.19;;;17.79;64.02
3544;BME280;1786;52.870;9.578;2022-12-26T08:58:46;100045.72;;;18.11;62.71
3544;BME280;1786;52.870;9.578;2022-12-26T09:01:22;100043.06;;;18.19;62.84
3544;BME280;1786;52.870;9.578;2022-12-26T09:03:58;100045.41;;;17.88;63.54
3544;BME280;1786;52.870;9.578;2022-12-26T09:06:27;100038.72;;;17.66;64.06
3544;BME280;1786;52.870;9.578;2022-12-26T09:08:54;100036.63;;;17.34;64.51
3544;BME280;1786;52.870;9.578;2022-12-26T09:11:23;100042.91;;;17.68;64.10
3544;BME280;1786;52.870;9.578;2022-12-26T09:13:56;100051.13;;;17.49;64.14
3544;BME280;1786;52.870;9.578;2022-12-26T09:16:26;100058.16;;;17.76;63.58
3544;BME280;1786;52.870;9.578;2022-12-26T09:18:59;100068.28;;;17.64;63.82
3544;BME280;1786;52.870;9.578;2022-12-26T09:21:28;100081.44;;;17.22;65.51
3544;BME280;1786;52.870;9.578;2022-12-26T09:24:00;100076.97;;;17.66;63.76
3544;BME280;1786;52.870;9.578;2022-12-26T09:26:27;100080.13;;;17.80;63.65
3544;BME280;1786;52.870;9.578;2022-12-26T09:28:54;100083.44;;;17.64;64.06
3544;BME280;1786;52.870;9.578;2022-12-26T09:31:23;100074.44;;;17.39;64.62
3544;BME280;1786;52.870;9.578;2022-12-26T09:33:50;100072.25;;;17.60;64.41
3544;BME280;1786;52.870;9.578;2022-12-26T09:36:24;100073.53;;;17.92;64.05
3544;BME280;1786;52.870;9.578;2022-12-26T09:38:53;100069.88;;;18.01;63.40
3544;BME280;1786;52.870;9.578;2022-12-26T09:41:53;100057.94;;;18.22;63.13
3544;BME280;1786;52.870;9.578;2022-12-26T09:49:57;100048.13;;;17.96;63.60
3544;BME280;1786;52.870;9.578;2022-12-26T09:52:47;100053.06;;;17.83;63.59
3544;BME280;1786;52.870;9.578;2022-12-26T09:55:44;100050.72;;;18.14;63.25
3544;BME280;1786;52.870;9.578;2022-12-26T09:58:31;100061.44;;;18.48;62.24
3544;BME280;1786;52.870;9.578;2022-12-26T10:01:27;100045.81;;;18.01;63.53
3544;BME280;1786;52.870;9.578;2022-12-26T10:03:56;100046.69;;;18.02;63.62
3544;BME280;1786;52.870;9.578;2022-12-26T10:06:33;100045.81;;;18.27;62.88
3544;BME280;1786;52.870;9.578;2022-12-26T10:17:23;100037.00;;;18.43;63.08
3544;BME280;1786;52.870;9.578;2022-12-26T10:22:49;100034.59;;;18.32;63.56
3544;BME280;1786;52.870;9.578;2022-12-26T10:25:35;100033.81;;;18.90;62.26
3544;BME280;1786;52.870;9.578;2022-12-26T10:28:04;100036.88;;;18.19;63.27
3544;BME280;1786;52.870;9.578;2022-12-26T10:30:40;100042.19;;;18.95;61.41
3544;BME280;1786;52.870;9.578;2022-12-26T10:33:19;100034.66;;;18.99;61.85
3544;BME280;1786;52.870;9.578;2022-12-26T10:35:48;100028.81;;;18.95;61.17
3544;BME280;1786;52.870;9.578;2022-12-26T10:38:28;100030.38;;;18.64;62.48
3544;BME280;1786;52.870;9.578;2022-12-26T10:41:03;100038.75;;;18.69;62.45
3544;BME280;1786;52.870;9.578;2022-12-26T10:43:34;100021.34;;;18.65;62.61
3544;BME280;1786;52.870;9.578;2022-12-26T10:46:26;100028.50;;;18.13;63.75
3544;BME280;1786;52.870;9.578;2022-12-26T10:48:55;100014.66;;;18.60;62.47
3544;BME280;1786;52.870;9.578;2022-12-26T10:51:23;100018.59;;;19.32;61.15
3544;BME280;1786;52.870;9.578;2022-12-26T10:53:51;100029.97;;;19.17;61.33
3544;BME280;1786;52.870;9.578;2022-12-26T10:56:20;100037.34;;;19.40;60.95
3544;BME280;1786;52.870;9.578;2022-12-26T10:58:58;100027.97;;;19.77;59.26
3544;BME280;1786;52.870;9.578;2022-12-26T11:01:36;100030.63;;;19.85;59.42
3544;BME280;1786;52.870;9.578;2022-12-26T11:04:13;100022.78;;;19.83;58.98
3544;BME280;1786;52.870;9.578;2022-12-26T11:06:49;100018.94;;;19.45;60.27
3544;BME280;1786;52.870;9.578;2022-12-26T11:12:20;100022.97;;;19.08;61.03
3544;BME280;1786;52.870;9.578;2022-12-26T11:14:49;100024.63;;;19.42;61.02
3544;BME280;1786;52.870;9.578;2022-12-26T11:17:30;100023.94;;;19.73;59.75
3544;BME280;1786;52.870;9.578;2022-12-26T11:22:42;100024.13;;;19.06;60.61
3544;BME280;1786;52.870;9.578;2022-12-26T11:27:40;100019.34;;;18.67;60.94
3544;BME280;1786;52.870;9.578;2022-12-26T11:32:45;100016.03;;;18.73;61.05
3544;BME280;1786;52.870;9.578;2022-12-26T11:35:23;100008.47;;;18.17;62.37
3544;BME280;1786;52.870;9.578;2022-12-26T11:37:55;100014.56;;;18.36;61.92
3544;BME280;1786;52.870;9.578;2022-12-26T11:40:36;100012.28;;;18.07;62.43
3544;BME280;1786;52.870;9.578;2022-12-26T11:43:12;99995.84;;;18.36;61.84
3544;BME280;1786;52.870;9.578;2022-12-26T11:45:42;100001.75;;;18.56;61.58
3544;BME280;1786;52.870;9.578;2022-12-26T11:48:22;99995.94;;;18.18;62.36
3544;BME280;1786;52.870;9.578;2022-12-26T11:50:50;99998.25;;;18.13;62.33
3544;BME280;1786;52.870;9.578;2022-12-26T11:53:19;99991.94;;;17.80;63.15
3544;BME280;1786;52.870;9.578;2022-12-26T11:56:03;99987.00;;;18.01;62.53
3544;BME280;1786;52.870;9.578;2022-12-26T11:58:34;99989.78;;;17.65;63.45
3544;BME280;1786;52.870;9.578;2022-12-26T12:01:05;99985.00;;;17.25;63.97
3544;BME280;1786;52.870;9.578;2022-12-26T12:03:44;99988.00;;;17.22;64.23
3544;BME280;1786;52.870;9.578;2022-12-26T12:06:31;99981.22;;;17.80;63.25
3544;BME280;1786;52.870;9.578;2022-12-26T12:17:29;99981.75;;;17.83;62.78
3544;BME280;1786;52.870;9.578;2022-12-26T12:33:30;99986.94;;;17.85;63.65
3544;BME280;1786;52.870;9.578;2022-12-26T12:36:09;99981.28;;;17.88;64.34
3544;BME280;1786;52.870;9.578;2022-12-26T12:44:17;99984.69;;;18.06;64.66
3544;BME280;1786;52.870;9.578;2022-12-26T12:50:19;99991.72;;;17.29;66.53
3544;BME280;1786;52.870;9.578;2022-12-26T12:53:22;99984.78;;;17.36;66.63
3544;BME280;1786;52.870;9.578;2022-12-26T12:56:19;99977.25;;;17.66;65.69
3544;BME280;1786;52.870;9.578;2022-12-26T12:59:03;99983.72;;;17.81;65.36
3544;BME280;1786;52.870;9.578;2022-12-26T13:01:37;99984.41;;;17.57;65.69
3544;BME280;1786;52.870;9.578;2022-12-26T13:04:12;99987.66;;;17.95;64.68
3544;BME280;1786;52.870;9.578;2022-12-26T13:06:49;99985.47;;;17.90;64.63
3544;BME280;1786;52.870;9.578;2022-12-26T13:09:26;99985.28;;;17.14;66.08
3544;BME280;1786;52.870;9.578;2022-12-26T13:12:00;99992.09;;;17.60;65.63
3544;BME280;1786;52.870;9.578;2022-12-26T13:14:41;99991.00;;;17.45;65.78
3544;BME280;1786;52.870;9.578;2022-12-26T13:17:50;99990.16;;;17.70;64.83
3544;BME280;1786;52.870;9.578;2022-12-26T13:20:32;100005.69;;;17.67;64.62
3544;BME280;1786;52.870;9.578;2022-12-26T13:23:04;100008.16;;;17.16;65.58
3544;BME280;1786;52.870;9.578;2022-12-26T13:26:07;100018.13;;;17.58;64.70
3544;BME280;1786;52.870;9.578;2022-12-26T13:28:44;100018.56;;;17.98;63.72
3544;BME280;1786;52.870;9.578;2022-12-26T13:31:14;100028.34;;;17.63;64.32
3544;BME280;1786;52.870;9.578;2022-12-26T13:33:42;100024.09;;;17.52;64.82
3544;BME280;1786;52.870;9.578;2022-12-26T13:36:46;100037.03;;;17.39;64.99
3544;BME280;1786;52.870;9.578;2022-12-26T13:42:14;100035.81;;;16.97;64.35
3544;BME280;1786;52.870;9.578;2022-12-26T13:45:45;100054.66;;;17.32;62.50
3544;BME280;1786;52.870;9.578;2022-12-26T13:50:59;100070.06;;;16.74;60.11
3544;BME280;1786;52.870;9.578;2022-12-26T13:53:32;100087.38;;;17.16;59.00
3544;BME280;1786;52.870;9.578;2022-12-26T13:56:01;100101.00;;;16.95;58.75
3544;BME280;1786;52.870;9.578;2022-12-26T14:03:45;100103.59;;;16.12;58.19
3544;BME280;1786;52.870;9.578;2022-12-26T14:06:26;100114.47;;;16.00;58.06
3544;BME280;1786;52.870;9.578;2022-12-26T14:09:12;100123.97;;;16.13;58.28
3544;BME280;1786;52.870;9.578;2022-12-26T14:11:55;100120.22;;;15.86;59.20
3544;BME280;1786;52.870;9.578;2022-12-26T14:17:47;100136.88;;;16.45;57.13
3544;BME280;1786;52.870;9.578;2022-12-26T14:26:27;100140.94;;;15.92;58.81
3544;BME280;1786;52.870;9.578;2022-12-26T14:29:12;100154.69;;;15.58;59.20
3544;BME280;1786;52.870;9.578;2022-12-26T14:31:55;100159.91;;;15.89;59.13
3544;BME280;1786;52.870;9.578;2022-12-26T14:34:33;100168.31;;;15.55;59.94
3544;BME280;1786;52.870;9.578;2022-12-26T14:37:36;100178.13;;;14.95;61.10
3544;BME280;1786;52.870;9.578;2022-12-26T14:40:56;100196.16;;;15.22;59.96
3544;BME280;1786;52.870;9.578;2022-12-26T14:43:37;100194.84;;;15.17;59.58
3544;BME280;1786;52.870;9.578;2022-12-26T14:51:43;100233.34;;;14.72;59.46
3544;BME280;1786;52.870;9.578;2022-12-26T14:56:48;100234.25;;;14.19;60.20
3544;BME280;1786;52.870;9.578;2022-12-26T14:59:28;100242.97;;;14.21;59.37
3544;BME280;1786;52.870;9.578;2022-12-26T15:05:03;100256.94;;;14.23;58.74
3544;BME280;1786;52.870;9.578;2022-12-26T15:07:59;100246.75;;;15.01;58.14
3544;BME280;1786;52.870;9.578;2022-12-26T15:13:47;100256.69;;;15.30;57.05
3544;BME280;1786;52.870;9.578;2022-12-26T15:16:38;100264.59;;;14.80;58.23
3544;BME280;1786;52.870;9.578;2022-12-26T15:23:05;100275.94;;;15.12;58.47
3544;BME280;1786;52.870;9.578;2022-12-26T15:26:04;100275.31;;;15.30;57.40
3544;BME280;1786;52.870;9.578;2022-12-26T15:31:46;100295.66;;;15.00;58.11
3544;BME280;1786;52.870;9.578;2022-12-26T15:43:30;100303.50;;;14.81;57.70
3544;BME280;1786;52.870;9.578;2022-12-26T15:46:17;100312.16;;;14.73;57.31
3544;BME280;1786;52.870;9.578;2022-12-26T15:49:01;100312.09;;;14.63;57.04
3544;BME280;1786;52.870;9.578;2022-12-26T15:54:56;100314.97;;;15.33;55.81
3544;BME280;1786;52.870;9.578;2022-12-26T15:57:49;100314.53;;;14.97;55.82
3544;BME280;1786;52.870;9.578;2022-12-26T16:00:21;100333.16;;;15.28;55.46
3544;BME280;1786;52.870;9.578;2022-12-26T16:05:49;100350.25;;;15.25;53.82
3544;BME280;1786;52.870;9.578;2022-12-26T16:11:21;100359.16;;;15.45;53.02
3544;BME280;1786;52.870;9.578;2022-12-26T16:13:57;100368.66;;;15.07;52.85
3544;BME280;1786;52.870;9.578;2022-12-26T16:16:35;100383.69;;;14.76;51.76
3544;BME280;1786;52.870;9.578;2022-12-26T16:19:20;100390.72;;;14.34;51.88
3544;BME280;1786;52.870;9.578;2022-12-26T16:21:59;100394.63;;;14.29;51.79
3544;BME280;1786;52.870;9.578;2022-12-26T16:24:46;100388.38;;;14.84;51.04
3544;BME280;1786;52.870;9.578;2022-12-26T16:27:19;100391.94;;;15.15;50.94
3544;BME280;1786;52.870;9.578;2022-12-26T16:29:50;100397.25;;;15.15;50.44
3544;BME280;1786;52.870;9.578;2022-12-26T16:32:20;100386.66;;;15.25;50.50